PAT625 KMIB-KRME
Flight info
| Callsign | PAT625 |
|---|---|
| Flight time | 2h 21m |
| Altitude | 41000 |
| Route | MIB MIB280010 MIB270010 MIB250010 MIB230010 MIB210010 MIB190010 MIB170010 MIB150010 MIB130010 MIB110020 MIB110030 KP18A KP12C FAR TTAIL Q140 AHPAH Q812 SYR |
| Aircraft | CL60/M-SBDE1E2E3FGHIJ1J4J5J7M3RWXYZ/LB1V1D1 |
Departure
| Time | 2026-05-04 02:48 |
|---|---|
| Airport | Minot Air Force Base (KMIB) |
Arrival
| Time | 2026-05-04 05:09 |
|---|---|
| Airport | Griffiss International Airport (KRME) |
| Time | Latitude | Longitude | Altitude | Speed | Heading |
|---|---|---|---|---|---|
| 2026-05-04 02:34 | 48.42024 | -101.35351 | 1651 ft | 0 kts | 35° |
| 2026-05-04 02:43 | 48.42026 | -101.35348 | 1652 ft | 5 kts | 47° |
| 2026-05-04 02:44 | 48.41976 | -101.35355 | 1652 ft | 12 kts | 213° |
| 2026-05-04 02:44 | 48.41965 | -101.35368 | 1652 ft | 0 kts | 220° |
| 2026-05-04 02:45 | 48.41958 | -101.35387 | 1653 ft | 4 kts | 263° |
| 2026-05-04 02:45 | 48.41964 | -101.35425 | 1654 ft | 1 kts | 283° |
| 2026-05-04 02:45 | 48.41851 | -101.35544 | 1655 ft | 24 kts | 187° |
| 2026-05-04 02:45 | 48.41720 | -101.35349 | 1652 ft | 27 kts | 123° |
| 2026-05-04 02:46 | 48.41602 | -101.35099 | 1652 ft | 28 kts | 125° |
| 2026-05-04 02:46 | 48.41477 | -101.34830 | 1649 ft | 30 kts | 124° |
| 2026-05-04 02:46 | 48.41326 | -101.34508 | 1645 ft | 32 kts | 124° |
| 2026-05-04 02:46 | 48.41163 | -101.34161 | 1642 ft | 35 kts | 125° |
| 2026-05-04 02:47 | 48.40994 | -101.33800 | 1636 ft | 26 kts | 124° |
| 2026-05-04 02:47 | 48.40851 | -101.33775 | 1637 ft | 21 kts | 217° |
| 2026-05-04 02:47 | 48.40731 | -101.33960 | 1641 ft | 20 kts | 277° |
| 2026-05-04 02:47 | 48.40920 | -101.34401 | 1647 ft | 92 kts | 305° |
| 2026-05-04 02:48 | 48.41542 | -101.35753 | 1817 ft | 165 kts | 315° |
| 2026-05-04 02:48 | 48.42353 | -101.37441 | 2734 ft | 179 kts | 314° |
| 2026-05-04 02:48 | 48.43129 | -101.39328 | 3957 ft | 193 kts | 298° |
| 2026-05-04 02:48 | 48.43497 | -101.41633 | 5214 ft | 201 kts | 290° |
| 2026-05-04 02:49 | 48.43825 | -101.44034 | 6491 ft | 204 kts | 288° |
| 2026-05-04 02:49 | 48.44156 | -101.46438 | 7722 ft | 204 kts | 287° |
| 2026-05-04 02:49 | 48.44487 | -101.48846 | 8900 ft | 203 kts | 286° |
| 2026-05-04 02:49 | 48.44814 | -101.51243 | 10065 ft | 200 kts | 284° |
| 2026-05-04 02:50 | 48.45114 | -101.53429 | 11007 ft | 205 kts | 283° |
| 2026-05-04 02:50 | 48.45435 | -101.56078 | 11329 ft | 248 kts | 274° |
| 2026-05-04 02:50 | 48.45090 | -101.58865 | 12098 ft | 267 kts | 249° |
| 2026-05-04 02:50 | 48.43592 | -101.61318 | 13119 ft | 292 kts | 216° |
| 2026-05-04 02:51 | 48.41153 | -101.62077 | 14191 ft | 321 kts | 185° |
| 2026-05-04 02:51 | 48.38517 | -101.61706 | 15215 ft | 333 kts | 180° |
| 2026-05-04 02:51 | 48.35947 | -101.60429 | 16208 ft | 352 kts | 162° |
| 2026-05-04 02:51 | 48.33474 | -101.58623 | 17148 ft | 362 kts | 155° |
| 2026-05-04 02:52 | 48.31289 | -101.56086 | 18042 ft | 375 kts | 141° |
| 2026-05-04 02:52 | 48.29189 | -101.53018 | 18926 ft | 382 kts | 138° |
| 2026-05-04 02:52 | 48.27401 | -101.49320 | 19822 ft | 391 kts | 118° |
| 2026-05-04 02:52 | 48.25995 | -101.44932 | 20732 ft | 397 kts | 111° |
| 2026-05-04 02:53 | 48.25279 | -101.40128 | 21627 ft | 399 kts | 94° |
| 2026-05-04 02:53 | 48.25055 | -101.35202 | 22474 ft | 399 kts | 83° |
| 2026-05-04 02:53 | 48.25648 | -101.30431 | 23211 ft | 402 kts | 71° |
| 2026-05-04 02:53 | 48.26771 | -101.25568 | 23335 ft | 422 kts | 56° |
| 2026-05-04 02:54 | 48.28450 | -101.20760 | 23461 ft | 452 kts | 65° |
| 2026-05-04 02:54 | 48.29093 | -101.15137 | 23916 ft | 476 kts | 88° |
| 2026-05-04 02:54 | 48.28639 | -101.09166 | 24507 ft | 486 kts | 96° |
| 2026-05-04 02:54 | 48.28069 | -101.03296 | 25152 ft | 490 kts | 96° |
| 2026-05-04 02:55 | 48.26656 | -100.91271 | 26340 ft | 501 kts | 108° |
| 2026-05-04 02:55 | 48.24944 | -100.85532 | 26859 ft | 507 kts | 116° |
| 2026-05-04 02:55 | 48.23085 | -100.79896 | 27426 ft | 511 kts | 116° |
| 2026-05-04 02:56 | 48.21215 | -100.74239 | 27973 ft | 516 kts | 116° |
| 2026-05-04 02:56 | 48.19439 | -100.68769 | 28471 ft | 519 kts | 114° |
| 2026-05-04 02:56 | 48.17801 | -100.63016 | 28940 ft | 523 kts | 112° |
| 2026-05-04 02:56 | 48.16225 | -100.57360 | 29445 ft | 524 kts | 112° |
| 2026-05-04 02:57 | 48.14611 | -100.51581 | 30082 ft | 523 kts | 112° |
| 2026-05-04 02:57 | 48.13008 | -100.45853 | 30745 ft | 520 kts | 111° |
| 2026-05-04 02:57 | 48.11429 | -100.40225 | 31402 ft | 518 kts | 111° |
| 2026-05-04 02:57 | 48.09816 | -100.34493 | 32058 ft | 515 kts | 112° |
| 2026-05-04 02:58 | 48.08204 | -100.28774 | 32679 ft | 513 kts | 112° |
| 2026-05-04 02:58 | 48.06564 | -100.22971 | 33264 ft | 512 kts | 112° |
| 2026-05-04 02:58 | 48.04943 | -100.17247 | 33825 ft | 510 kts | 111° |
| 2026-05-04 02:58 | 48.03287 | -100.11416 | 34387 ft | 508 kts | 111° |
| 2026-05-04 02:59 | 48.01676 | -100.05757 | 34908 ft | 507 kts | 111° |
| 2026-05-04 02:59 | 47.99889 | -100.00172 | 35388 ft | 506 kts | 119° |
| 2026-05-04 02:59 | 47.97654 | -99.95089 | 35829 ft | 506 kts | 125° |
| 2026-05-04 02:59 | 47.95204 | -99.90004 | 36272 ft | 505 kts | 125° |
| 2026-05-04 03:00 | 47.92799 | -99.85029 | 36605 ft | 504 kts | 126° |
| 2026-05-04 03:00 | 47.90492 | -99.80267 | 36894 ft | 504 kts | 126° |
| 2026-05-04 03:00 | 47.88135 | -99.75410 | 37166 ft | 504 kts | 126° |
| 2026-05-04 03:00 | 47.85729 | -99.70460 | 37407 ft | 504 kts | 126° |
| 2026-05-04 03:01 | 47.83280 | -99.65432 | 37636 ft | 504 kts | 126° |
| 2026-05-04 03:01 | 47.80828 | -99.60407 | 37861 ft | 505 kts | 126° |
| 2026-05-04 03:01 | 47.78351 | -99.55341 | 38082 ft | 505 kts | 126° |
| 2026-05-04 03:01 | 47.75888 | -99.50313 | 38285 ft | 505 kts | 126° |
| 2026-05-04 03:02 | 47.73420 | -99.45284 | 38480 ft | 505 kts | 126° |
| 2026-05-04 03:02 | 47.70954 | -99.40269 | 38667 ft | 505 kts | 126° |
| 2026-05-04 03:02 | 47.68522 | -99.35332 | 38843 ft | 505 kts | 126° |
| 2026-05-04 03:02 | 47.66146 | -99.30518 | 39013 ft | 504 kts | 127° |
| 2026-05-04 03:03 | 47.63726 | -99.25623 | 39175 ft | 504 kts | 127° |
| 2026-05-04 03:03 | 47.61269 | -99.20662 | 39326 ft | 504 kts | 127° |
| 2026-05-04 03:03 | 47.58839 | -99.15765 | 39449 ft | 504 kts | 127° |
| 2026-05-04 03:03 | 47.56377 | -99.10812 | 39562 ft | 504 kts | 127° |
| 2026-05-04 03:04 | 47.53940 | -99.05917 | 39670 ft | 504 kts | 127° |
| 2026-05-04 03:04 | 47.49052 | -98.96130 | 39864 ft | 504 kts | 127° |
| 2026-05-04 03:05 | 47.44156 | -98.86360 | 40073 ft | 504 kts | 127° |
| 2026-05-04 03:05 | 47.41799 | -98.81669 | 40182 ft | 503 kts | 126° |
| 2026-05-04 03:05 | 47.39359 | -98.76820 | 40295 ft | 502 kts | 126° |
| 2026-05-04 03:05 | 47.36951 | -98.72047 | 40402 ft | 502 kts | 126° |
| 2026-05-04 03:06 | 47.34490 | -98.67175 | 40487 ft | 501 kts | 127° |
| 2026-05-04 03:06 | 47.29615 | -98.57551 | 40532 ft | 504 kts | 127° |
| 2026-05-04 03:07 | 47.24937 | -98.48346 | 40545 ft | 507 kts | 127° |
| 2026-05-04 03:07 | 47.20374 | -98.39398 | 40554 ft | 509 kts | 127° |
| 2026-05-04 03:08 | 47.15757 | -98.30375 | 40554 ft | 512 kts | 128° |
| 2026-05-04 03:08 | 47.11139 | -98.21379 | 40557 ft | 514 kts | 128° |
| 2026-05-04 03:09 | 47.06511 | -98.12393 | 40544 ft | 517 kts | 128° |
| 2026-05-04 03:09 | 47.01920 | -98.03206 | 40538 ft | 521 kts | 122° |
| 2026-05-04 03:10 | 46.98510 | -97.92720 | 40548 ft | 522 kts | 107° |
| 2026-05-04 03:10 | 46.96155 | -97.81524 | 40542 ft | 527 kts | 105° |
| 2026-05-04 03:11 | 46.93824 | -97.70379 | 40541 ft | 531 kts | 105° |
| 2026-05-04 03:11 | 46.91510 | -97.59395 | 40540 ft | 533 kts | 105° |
| 2026-05-04 03:12 | 46.89209 | -97.48556 | 40545 ft | 532 kts | 105° |
| 2026-05-04 03:12 | 46.86694 | -97.36793 | 40542 ft | 532 kts | 105° |
| 2026-05-04 03:13 | 46.84139 | -97.24924 | 40537 ft | 532 kts | 106° |
| 2026-05-04 03:13 | 46.81547 | -97.12965 | 40552 ft | 531 kts | 106° |
| 2026-05-04 03:14 | 46.78961 | -97.01102 | 40564 ft | 531 kts | 106° |
| 2026-05-04 03:14 | 46.76358 | -96.89245 | 40565 ft | 531 kts | 107° |
| 2026-05-04 03:15 | 46.72894 | -96.78386 | 40569 ft | 532 kts | 118° |
| 2026-05-04 03:15 | 46.69231 | -96.67417 | 40566 ft | 531 kts | 108° |
| 2026-05-04 03:16 | 46.67147 | -96.56228 | 40577 ft | 529 kts | 100° |
| 2026-05-04 03:16 | 46.65409 | -96.45296 | 40587 ft | 529 kts | 101° |
| 2026-05-04 03:17 | 46.63551 | -96.33749 | 40596 ft | 529 kts | 101° |
| 2026-05-04 03:17 | 46.61610 | -96.21818 | 40606 ft | 528 kts | 101° |
| 2026-05-04 03:18 | 46.59716 | -96.10277 | 40607 ft | 528 kts | 101° |
| 2026-05-04 03:18 | 46.57818 | -95.98817 | 40607 ft | 528 kts | 101° |
| 2026-05-04 03:19 | 46.55870 | -95.87145 | 40605 ft | 528 kts | 101° |
| 2026-05-04 03:19 | 46.53896 | -95.75410 | 40603 ft | 528 kts | 101° |
| 2026-05-04 03:20 | 46.51907 | -95.63669 | 40603 ft | 528 kts | 101° |
| 2026-05-04 03:20 | 46.49891 | -95.51859 | 40608 ft | 527 kts | 101° |
| 2026-05-04 03:21 | 46.47869 | -95.40099 | 40610 ft | 527 kts | 101° |
| 2026-05-04 03:21 | 46.45910 | -95.28783 | 40618 ft | 527 kts | 102° |
| 2026-05-04 03:22 | 46.44011 | -95.17884 | 40622 ft | 527 kts | 102° |
| 2026-05-04 03:22 | 46.42093 | -95.06942 | 40625 ft | 527 kts | 102° |
| 2026-05-04 03:23 | 46.40142 | -94.95884 | 40628 ft | 527 kts | 102° |
| 2026-05-04 03:23 | 46.38158 | -94.84705 | 40632 ft | 526 kts | 102° |
| 2026-05-04 03:24 | 46.36193 | -94.73707 | 40638 ft | 526 kts | 102° |
| 2026-05-04 03:24 | 46.34291 | -94.63123 | 40645 ft | 525 kts | 102° |
| 2026-05-04 03:25 | 46.32331 | -94.52284 | 40647 ft | 525 kts | 102° |
| 2026-05-04 03:25 | 46.30331 | -94.41290 | 40646 ft | 524 kts | 102° |
| 2026-05-04 03:26 | 46.28219 | -94.29752 | 40649 ft | 523 kts | 103° |
| 2026-05-04 03:26 | 46.26150 | -94.18516 | 40652 ft | 522 kts | 103° |
| 2026-05-04 03:27 | 46.24015 | -94.07000 | 40652 ft | 522 kts | 103° |
| 2026-05-04 03:27 | 46.21816 | -93.95205 | 40652 ft | 522 kts | 103° |
| 2026-05-04 03:28 | 46.19594 | -93.83368 | 40651 ft | 522 kts | 103° |
| 2026-05-04 03:28 | 46.17446 | -93.71999 | 40653 ft | 522 kts | 103° |
| 2026-05-04 03:29 | 46.15327 | -93.60841 | 40656 ft | 522 kts | 103° |
| 2026-05-04 03:29 | 46.13148 | -93.49442 | 40667 ft | 522 kts | 103° |
| 2026-05-04 03:30 | 46.10948 | -93.38003 | 40676 ft | 522 kts | 103° |
| 2026-05-04 03:30 | 46.08749 | -93.26632 | 40688 ft | 522 kts | 104° |
| 2026-05-04 03:31 | 46.06572 | -93.15447 | 40697 ft | 521 kts | 104° |
| 2026-05-04 03:31 | 46.04330 | -93.03990 | 40701 ft | 522 kts | 104° |
| 2026-05-04 03:32 | 46.02061 | -92.92464 | 40698 ft | 522 kts | 104° |
| 2026-05-04 03:32 | 45.99792 | -92.81008 | 40692 ft | 522 kts | 104° |
| 2026-05-04 03:33 | 45.97496 | -92.69484 | 40691 ft | 522 kts | 104° |
| 2026-05-04 03:33 | 45.95177 | -92.57912 | 40688 ft | 522 kts | 104° |
| 2026-05-04 03:34 | 45.92864 | -92.46440 | 40696 ft | 521 kts | 104° |
| 2026-05-04 03:34 | 45.90574 | -92.35147 | 40701 ft | 521 kts | 104° |
| 2026-05-04 03:35 | 45.88421 | -92.24586 | 40705 ft | 521 kts | 105° |
| 2026-05-04 03:35 | 45.86251 | -92.13913 | 40708 ft | 521 kts | 104° |
| 2026-05-04 03:36 | 45.84131 | -92.03018 | 40708 ft | 521 kts | 104° |
| 2026-05-04 03:36 | 45.81956 | -91.91911 | 40710 ft | 521 kts | 104° |
| 2026-05-04 03:37 | 45.79678 | -91.80355 | 40709 ft | 520 kts | 104° |
| 2026-05-04 03:37 | 45.77358 | -91.68668 | 40717 ft | 520 kts | 104° |
| 2026-05-04 03:38 | 45.75090 | -91.57311 | 40724 ft | 520 kts | 104° |
| 2026-05-04 03:38 | 45.72808 | -91.45955 | 40722 ft | 520 kts | 104° |
| 2026-05-04 03:39 | 45.70492 | -91.34496 | 40722 ft | 521 kts | 105° |
| 2026-05-04 03:39 | 45.68157 | -91.23012 | 40726 ft | 521 kts | 105° |
| 2026-05-04 03:40 | 45.65823 | -91.11600 | 40730 ft | 521 kts | 105° |
| 2026-05-04 03:40 | 45.63491 | -91.00266 | 40734 ft | 521 kts | 105° |
| 2026-05-04 03:41 | 45.61129 | -90.88845 | 40738 ft | 521 kts | 105° |
| 2026-05-04 03:41 | 45.58777 | -90.77539 | 40741 ft | 521 kts | 105° |
| 2026-05-04 03:42 | 45.56399 | -90.66169 | 40740 ft | 522 kts | 105° |
| 2026-05-04 03:42 | 45.54059 | -90.55045 | 40736 ft | 522 kts | 105° |
| 2026-05-04 03:43 | 45.51739 | -90.44075 | 40730 ft | 522 kts | 105° |
| 2026-05-04 03:43 | 45.49427 | -90.33196 | 40727 ft | 522 kts | 107° |
| 2026-05-04 03:44 | 45.47032 | -90.21994 | 40725 ft | 522 kts | 107° |
| 2026-05-04 03:44 | 45.44664 | -90.10973 | 40724 ft | 522 kts | 107° |
| 2026-05-04 03:45 | 45.42263 | -89.99861 | 40725 ft | 522 kts | 107° |
| 2026-05-04 03:45 | 45.39829 | -89.88654 | 40726 ft | 522 kts | 107° |
| 2026-05-04 03:46 | 45.37387 | -89.77470 | 40726 ft | 522 kts | 107° |
| 2026-05-04 03:46 | 45.34947 | -89.66356 | 40728 ft | 522 kts | 107° |
| 2026-05-04 03:47 | 45.32473 | -89.55142 | 40726 ft | 522 kts | 107° |
| 2026-05-04 03:47 | 45.29987 | -89.43928 | 40727 ft | 523 kts | 107° |
| 2026-05-04 03:48 | 45.27519 | -89.32840 | 40729 ft | 523 kts | 107° |
| 2026-05-04 03:48 | 45.25044 | -89.21772 | 40730 ft | 522 kts | 107° |
| 2026-05-04 03:49 | 45.22543 | -89.10648 | 40733 ft | 522 kts | 107° |
| 2026-05-04 03:49 | 45.20024 | -88.99501 | 40735 ft | 522 kts | 107° |
| 2026-05-04 03:50 | 45.17525 | -88.88498 | 40737 ft | 522 kts | 107° |
| 2026-05-04 03:50 | 45.14996 | -88.77403 | 40736 ft | 522 kts | 107° |
| 2026-05-04 03:51 | 45.12700 | -88.66121 | 40733 ft | 522 kts | 105° |
| 2026-05-04 03:51 | 45.10455 | -88.54992 | 40730 ft | 522 kts | 105° |
| 2026-05-04 03:52 | 45.08201 | -88.43882 | 40727 ft | 521 kts | 105° |
| 2026-05-04 03:52 | 45.05960 | -88.32894 | 40724 ft | 521 kts | 106° |
| 2026-05-04 03:53 | 45.03724 | -88.21995 | 40720 ft | 521 kts | 106° |
| 2026-05-04 03:53 | 45.01432 | -88.10886 | 40721 ft | 521 kts | 106° |
| 2026-05-04 03:54 | 44.99115 | -87.99710 | 40720 ft | 521 kts | 106° |
| 2026-05-04 03:54 | 44.96753 | -87.88386 | 40719 ft | 521 kts | 106° |
| 2026-05-04 03:55 | 44.94399 | -87.77162 | 40719 ft | 521 kts | 106° |
| 2026-05-04 03:55 | 44.92020 | -87.65880 | 40722 ft | 521 kts | 106° |
| 2026-05-04 03:56 | 44.89656 | -87.54726 | 40721 ft | 522 kts | 106° |
| 2026-05-04 03:56 | 44.87247 | -87.43425 | 40721 ft | 522 kts | 106° |
| 2026-05-04 03:57 | 44.84835 | -87.32169 | 40720 ft | 522 kts | 107° |
| 2026-05-04 03:57 | 44.82404 | -87.20888 | 40720 ft | 522 kts | 107° |
| 2026-05-04 03:58 | 44.78724 | -87.03923 | 40718 ft | 522 kts | 107° |
| 2026-05-04 03:58 | 44.76289 | -86.92771 | 40718 ft | 522 kts | 107° |
| 2026-05-04 03:59 | 44.73847 | -86.81648 | 40715 ft | 522 kts | 107° |
| 2026-05-04 03:59 | 44.71386 | -86.70493 | 40710 ft | 522 kts | 107° |
| 2026-05-04 04:00 | 44.68986 | -86.59675 | 40707 ft | 522 kts | 107° |
| 2026-05-04 04:00 | 44.66618 | -86.49053 | 40704 ft | 522 kts | 107° |
| 2026-05-04 04:01 | 44.64312 | -86.38757 | 40702 ft | 522 kts | 107° |
| 2026-05-04 04:01 | 44.62082 | -86.28844 | 40702 ft | 522 kts | 108° |
| 2026-05-04 04:02 | 44.59808 | -86.18788 | 40702 ft | 521 kts | 108° |
| 2026-05-04 04:02 | 44.57519 | -86.08710 | 40703 ft | 521 kts | 108° |
| 2026-05-04 04:03 | 44.55197 | -85.98536 | 40702 ft | 521 kts | 108° |
| 2026-05-04 04:03 | 44.52891 | -85.88479 | 40700 ft | 521 kts | 108° |
| 2026-05-04 04:04 | 44.50575 | -85.78419 | 40707 ft | 520 kts | 108° |
| 2026-05-04 04:04 | 44.48245 | -85.68349 | 40711 ft | 520 kts | 108° |
| 2026-05-04 04:05 | 44.45847 | -85.58031 | 40711 ft | 520 kts | 108° |
| 2026-05-04 04:05 | 44.43416 | -85.47621 | 40716 ft | 520 kts | 108° |
| 2026-05-04 04:06 | 44.40963 | -85.37166 | 40723 ft | 520 kts | 108° |
| 2026-05-04 04:06 | 44.38500 | -85.26716 | 40727 ft | 520 kts | 109° |
| 2026-05-04 04:07 | 44.35939 | -85.15902 | 40731 ft | 521 kts | 109° |
| 2026-05-04 04:07 | 44.33409 | -85.05269 | 40731 ft | 521 kts | 109° |
| 2026-05-04 04:08 | 44.30866 | -84.94635 | 40732 ft | 522 kts | 109° |
| 2026-05-04 04:08 | 44.28347 | -84.84148 | 40738 ft | 522 kts | 109° |
| 2026-05-04 04:09 | 44.25821 | -84.73682 | 40742 ft | 522 kts | 109° |
| 2026-05-04 04:09 | 44.23282 | -84.63208 | 40741 ft | 522 kts | 109° |
| 2026-05-04 04:10 | 44.20710 | -84.52648 | 40744 ft | 522 kts | 109° |
| 2026-05-04 04:10 | 44.18256 | -84.42018 | 40748 ft | 522 kts | 103° |
| 2026-05-04 04:11 | 44.17305 | -84.31104 | 40756 ft | 520 kts | 89° |
| 2026-05-04 04:11 | 44.17750 | -84.19785 | 40757 ft | 520 kts | 85° |
| 2026-05-04 04:12 | 44.18262 | -84.08377 | 40753 ft | 521 kts | 85° |
| 2026-05-04 04:12 | 44.18766 | -83.96907 | 40748 ft | 521 kts | 85° |
| 2026-05-04 04:13 | 44.19260 | -83.85398 | 40752 ft | 520 kts | 85° |
| 2026-05-04 04:13 | 44.19749 | -83.73731 | 40756 ft | 520 kts | 85° |
| 2026-05-04 04:14 | 44.20224 | -83.62105 | 40761 ft | 520 kts | 85° |
| 2026-05-04 04:14 | 44.20687 | -83.50503 | 40762 ft | 520 kts | 85° |
| 2026-05-04 04:15 | 44.21139 | -83.38882 | 40762 ft | 520 kts | 85° |
| 2026-05-04 04:15 | 44.21580 | -83.27236 | 40764 ft | 519 kts | 86° |
| 2026-05-04 04:16 | 44.22007 | -83.15637 | 40766 ft | 519 kts | 86° |
| 2026-05-04 04:16 | 44.22419 | -83.04155 | 40765 ft | 519 kts | 86° |
| 2026-05-04 04:17 | 44.22802 | -82.93164 | 40766 ft | 519 kts | 86° |
| 2026-05-04 04:17 | 44.23165 | -82.82435 | 40768 ft | 519 kts | 86° |
| 2026-05-04 04:18 | 44.23529 | -82.71402 | 40770 ft | 519 kts | 86° |
| 2026-05-04 04:18 | 44.23885 | -82.60253 | 40771 ft | 519 kts | 86° |
| 2026-05-04 04:19 | 44.24235 | -82.48955 | 40772 ft | 519 kts | 86° |
| 2026-05-04 04:19 | 44.24572 | -82.37717 | 40774 ft | 520 kts | 86° |
| 2026-05-04 04:20 | 44.24489 | -82.26531 | 40770 ft | 520 kts | 97° |
| 2026-05-04 04:20 | 44.22743 | -82.15629 | 40774 ft | 520 kts | 105° |
| 2026-05-04 04:21 | 44.20639 | -82.04550 | 40776 ft | 520 kts | 105° |
| 2026-05-04 04:21 | 44.18477 | -81.93239 | 40777 ft | 521 kts | 105° |
| 2026-05-04 04:22 | 44.16315 | -81.81998 | 40779 ft | 521 kts | 105° |
| 2026-05-04 04:22 | 44.14182 | -81.70995 | 40781 ft | 521 kts | 105° |
| 2026-05-04 04:23 | 44.11995 | -81.59911 | 40782 ft | 521 kts | 105° |
| 2026-05-04 04:23 | 44.09823 | -81.48929 | 40785 ft | 520 kts | 105° |
| 2026-05-04 04:24 | 44.07657 | -81.38010 | 40786 ft | 520 kts | 105° |
| 2026-05-04 04:24 | 44.05512 | -81.27241 | 40789 ft | 520 kts | 106° |
| 2026-05-04 04:25 | 44.03342 | -81.16388 | 40793 ft | 519 kts | 106° |
| 2026-05-04 04:25 | 44.01162 | -81.05535 | 40800 ft | 519 kts | 106° |
| 2026-05-04 04:26 | 43.99001 | -80.94831 | 40808 ft | 519 kts | 107° |
| 2026-05-04 04:26 | 43.96862 | -80.84283 | 40814 ft | 519 kts | 107° |
| 2026-05-04 04:27 | 43.94712 | -80.73734 | 40818 ft | 519 kts | 107° |
| 2026-05-04 04:27 | 43.92550 | -80.63182 | 40817 ft | 520 kts | 107° |
| 2026-05-04 04:28 | 43.90411 | -80.52788 | 40822 ft | 520 kts | 107° |
| 2026-05-04 04:28 | 43.88293 | -80.42553 | 40826 ft | 520 kts | 107° |
| 2026-05-04 04:29 | 43.86192 | -80.32446 | 40831 ft | 520 kts | 108° |
| 2026-05-04 04:29 | 43.84092 | -80.22391 | 40834 ft | 519 kts | 108° |
| 2026-05-04 04:30 | 43.82000 | -80.12428 | 40826 ft | 519 kts | 108° |
| 2026-05-04 04:30 | 43.79868 | -80.02319 | 40823 ft | 518 kts | 108° |
| 2026-05-04 04:31 | 43.77679 | -79.92046 | 40820 ft | 518 kts | 108° |
| 2026-05-04 04:31 | 43.75442 | -79.81603 | 40818 ft | 518 kts | 108° |
| 2026-05-04 04:32 | 43.73203 | -79.71205 | 40816 ft | 518 kts | 108° |
| 2026-05-04 04:32 | 43.70977 | -79.60918 | 40814 ft | 518 kts | 108° |
| 2026-05-04 04:33 | 43.68773 | -79.50781 | 40812 ft | 518 kts | 108° |
| 2026-05-04 04:33 | 43.66438 | -79.40099 | 40852 ft | 518 kts | 108° |
| 2026-05-04 04:34 | 43.63840 | -79.29453 | 40896 ft | 517 kts | 113° |
| 2026-05-04 04:34 | 43.60836 | -79.18755 | 40962 ft | 518 kts | 113° |
| 2026-05-04 04:35 | 43.57850 | -79.08151 | 40992 ft | 519 kts | 113° |
| 2026-05-04 04:35 | 43.54845 | -78.97510 | 40969 ft | 520 kts | 113° |
| 2026-05-04 04:36 | 43.51817 | -78.86833 | 40945 ft | 519 kts | 113° |
| 2026-05-04 04:36 | 43.48769 | -78.76134 | 40920 ft | 519 kts | 113° |
| 2026-05-04 04:37 | 43.42677 | -78.54829 | 40853 ft | 520 kts | 113° |
| 2026-05-04 04:38 | 43.39636 | -78.44260 | 40860 ft | 519 kts | 113° |
| 2026-05-04 04:38 | 43.38103 | -78.38950 | 40753 ft | 521 kts | 113° |
| 2026-05-04 04:38 | 43.36603 | -78.33768 | 40125 ft | 518 kts | 114° |
| 2026-05-04 04:39 | 43.35103 | -78.28593 | 39431 ft | 515 kts | 114° |
| 2026-05-04 04:39 | 43.33577 | -78.23344 | 38686 ft | 511 kts | 114° |
| 2026-05-04 04:39 | 43.32130 | -78.18147 | 37970 ft | 510 kts | 110° |
| 2026-05-04 04:39 | 43.31069 | -78.12718 | 37112 ft | 513 kts | 102° |
| 2026-05-04 04:40 | 43.30544 | -78.07110 | 36319 ft | 512 kts | 94° |
| 2026-05-04 04:40 | 43.30460 | -78.01485 | 35501 ft | 511 kts | 91° |
| 2026-05-04 04:40 | 43.30423 | -77.95842 | 34755 ft | 511 kts | 90° |
| 2026-05-04 04:40 | 43.30384 | -77.90258 | 33960 ft | 513 kts | 90° |
| 2026-05-04 04:41 | 43.30345 | -77.84856 | 33199 ft | 513 kts | 90° |
| 2026-05-04 04:41 | 43.30304 | -77.79366 | 32383 ft | 510 kts | 90° |
| 2026-05-04 04:41 | 43.30260 | -77.73912 | 31673 ft | 502 kts | 90° |
| 2026-05-04 04:41 | 43.30216 | -77.68507 | 30923 ft | 496 kts | 89° |
| 2026-05-04 04:42 | 43.30170 | -77.63085 | 30167 ft | 492 kts | 89° |
| 2026-05-04 04:42 | 43.30123 | -77.57869 | 29427 ft | 483 kts | 89° |
| 2026-05-04 04:42 | 43.30076 | -77.52616 | 28746 ft | 485 kts | 89° |
| 2026-05-04 04:42 | 43.30026 | -77.47375 | 28043 ft | 482 kts | 89° |
| 2026-05-04 04:43 | 43.29974 | -77.42270 | 27320 ft | 478 kts | 89° |
| 2026-05-04 04:43 | 43.29921 | -77.37135 | 26625 ft | 472 kts | 89° |
| 2026-05-04 04:43 | 43.29866 | -77.32148 | 25922 ft | 468 kts | 90° |
| 2026-05-04 04:43 | 43.29811 | -77.27183 | 25241 ft | 463 kts | 90° |
| 2026-05-04 04:44 | 43.29753 | -77.22231 | 24555 ft | 460 kts | 90° |
| 2026-05-04 04:44 | 43.29694 | -77.17333 | 23871 ft | 456 kts | 90° |
| 2026-05-04 04:44 | 43.29635 | -77.12508 | 23198 ft | 451 kts | 90° |
| 2026-05-04 04:44 | 43.29572 | -77.07661 | 22531 ft | 447 kts | 90° |
| 2026-05-04 04:45 | 43.29510 | -77.02989 | 21878 ft | 443 kts | 90° |
| 2026-05-04 04:45 | 43.29446 | -76.98236 | 21213 ft | 439 kts | 90° |
| 2026-05-04 04:45 | 43.29380 | -76.93522 | 20559 ft | 435 kts | 90° |
| 2026-05-04 04:47 | 43.28954 | -76.66783 | 16843 ft | 414 kts | 92° |
| 2026-05-04 04:47 | 43.28354 | -76.62824 | 16259 ft | 410 kts | 109° |
| 2026-05-04 04:47 | 43.27308 | -76.59152 | 15698 ft | 407 kts | 112° |
| 2026-05-04 04:47 | 43.26250 | -76.55548 | 15160 ft | 404 kts | 112° |
| 2026-05-04 04:48 | 43.25102 | -76.51630 | 14580 ft | 401 kts | 112° |
| 2026-05-04 04:49 | 43.20492 | -76.35901 | 12210 ft | 363 kts | 112° |
| 2026-05-04 04:49 | 43.19467 | -76.32422 | 11687 ft | 355 kts | 113° |
| 2026-05-04 04:49 | 43.18429 | -76.28890 | 11149 ft | 346 kts | 112° |
| 2026-05-04 04:49 | 43.17427 | -76.25442 | 10651 ft | 339 kts | 112° |
| 2026-05-04 04:50 | 43.16444 | -76.22105 | 10162 ft | 333 kts | 112° |
| 2026-05-04 04:50 | 43.15492 | -76.18884 | 9952 ft | 318 kts | 113° |
| 2026-05-04 04:50 | 43.14626 | -76.15925 | 9943 ft | 314 kts | 112° |
| 2026-05-04 04:50 | 43.13718 | -76.12871 | 9906 ft | 319 kts | 115° |
| 2026-05-04 04:51 | 43.12792 | -76.09818 | 9914 ft | 319 kts | 115° |
| 2026-05-04 04:51 | 43.11830 | -76.06733 | 9913 ft | 319 kts | 116° |
| 2026-05-04 04:51 | 43.10854 | -76.03593 | 9934 ft | 319 kts | 115° |
| 2026-05-04 04:51 | 43.09846 | -76.00423 | 9931 ft | 318 kts | 116° |
| 2026-05-04 04:52 | 43.08824 | -75.97295 | 9929 ft | 319 kts | 117° |
| 2026-05-04 04:52 | 43.07784 | -75.94174 | 9905 ft | 319 kts | 117° |
| 2026-05-04 04:52 | 43.06713 | -75.91037 | 9912 ft | 319 kts | 118° |
| 2026-05-04 04:52 | 43.05719 | -75.88254 | 9914 ft | 319 kts | 118° |
| 2026-05-04 04:53 | 43.04686 | -75.85439 | 9915 ft | 319 kts | 119° |
| 2026-05-04 04:53 | 43.03658 | -75.82696 | 9915 ft | 318 kts | 120° |
| 2026-05-04 04:53 | 43.02597 | -75.79975 | 9912 ft | 319 kts | 121° |
| 2026-05-04 04:53 | 43.01499 | -75.77196 | 9910 ft | 318 kts | 121° |
| 2026-05-04 04:54 | 43.00360 | -75.74380 | 9913 ft | 318 kts | 121° |
| 2026-05-04 04:54 | 42.99198 | -75.71564 | 9916 ft | 318 kts | 122° |
| 2026-05-04 04:54 | 42.98033 | -75.68788 | 9918 ft | 318 kts | 122° |
| 2026-05-04 04:54 | 42.96855 | -75.66040 | 9926 ft | 318 kts | 123° |
| 2026-05-04 04:55 | 42.95651 | -75.63285 | 9923 ft | 318 kts | 124° |
| 2026-05-04 04:55 | 42.94436 | -75.60571 | 9918 ft | 318 kts | 124° |
| 2026-05-04 04:55 | 42.93222 | -75.57918 | 9922 ft | 317 kts | 125° |
| 2026-05-04 04:55 | 42.91987 | -75.55267 | 9931 ft | 317 kts | 125° |
| 2026-05-04 04:56 | 42.90758 | -75.52685 | 9922 ft | 317 kts | 126° |
| 2026-05-04 04:56 | 42.89494 | -75.50051 | 9925 ft | 317 kts | 126° |
| 2026-05-04 04:56 | 42.88242 | -75.47463 | 9922 ft | 317 kts | 126° |
| 2026-05-04 04:56 | 42.87008 | -75.44954 | 9925 ft | 317 kts | 126° |
| 2026-05-04 04:57 | 42.85757 | -75.42453 | 9924 ft | 317 kts | 127° |
| 2026-05-04 04:57 | 42.84480 | -75.39950 | 9922 ft | 317 kts | 128° |
| 2026-05-04 04:57 | 42.83189 | -75.37454 | 9924 ft | 317 kts | 128° |
| 2026-05-04 04:57 | 42.81875 | -75.34969 | 9923 ft | 317 kts | 129° |
| 2026-05-04 04:58 | 42.80493 | -75.32394 | 9925 ft | 316 kts | 129° |
| 2026-05-04 04:58 | 42.79110 | -75.29860 | 9924 ft | 317 kts | 130° |
| 2026-05-04 04:58 | 42.77679 | -75.27334 | 9923 ft | 316 kts | 131° |
| 2026-05-04 04:58 | 42.76195 | -75.24767 | 9917 ft | 316 kts | 132° |
| 2026-05-04 04:59 | 42.75050 | -75.22039 | 9935 ft | 320 kts | 108° |
| 2026-05-04 04:59 | 42.74897 | -75.18933 | 9933 ft | 319 kts | 78° |
| 2026-05-04 04:59 | 42.75794 | -75.16090 | 9936 ft | 309 kts | 48° |
| 2026-05-04 04:59 | 42.77232 | -75.13818 | 9927 ft | 307 kts | 43° |
| 2026-05-04 05:00 | 42.78706 | -75.11620 | 9919 ft | 306 kts | 43° |
| 2026-05-04 05:00 | 42.80311 | -75.09658 | 9921 ft | 291 kts | 25° |
| 2026-05-04 05:00 | 42.84060 | -75.08959 | 8996 ft | 263 kts | 339° |
| 2026-05-04 05:01 | 42.85934 | -75.09706 | 8475 ft | 262 kts | 338° |
| 2026-05-04 05:01 | 42.87765 | -75.10436 | 8002 ft | 260 kts | 338° |
| 2026-05-04 05:01 | 42.89555 | -75.11164 | 7527 ft | 258 kts | 338° |
| 2026-05-04 05:01 | 42.91316 | -75.11875 | 7034 ft | 258 kts | 338° |
| 2026-05-04 05:02 | 42.93086 | -75.12594 | 6536 ft | 257 kts | 338° |
| 2026-05-04 05:02 | 42.94838 | -75.13304 | 6037 ft | 256 kts | 338° |
| 2026-05-04 05:02 | 42.96727 | -75.14071 | 5639 ft | 250 kts | 338° |
| 2026-05-04 05:02 | 42.98626 | -75.14848 | 5290 ft | 251 kts | 338° |
| 2026-05-04 05:03 | 43.00588 | -75.15652 | 4905 ft | 253 kts | 338° |
| 2026-05-04 05:03 | 43.02509 | -75.16438 | 4529 ft | 253 kts | 339° |
| 2026-05-04 05:04 | 43.08059 | -75.19159 | 3507 ft | 242 kts | 317° |
| 2026-05-04 05:04 | 43.09405 | -75.20946 | 3515 ft | 219 kts | 312° |
| 2026-05-04 05:04 | 43.10545 | -75.22572 | 3519 ft | 207 kts | 311° |
| 2026-05-04 05:06 | 43.17966 | -75.33051 | 1798 ft | 139 kts | 313° |
| 2026-05-04 05:06 | 43.18737 | -75.34139 | 1509 ft | 134 kts | 314° |
| 2026-05-04 05:06 | 43.19501 | -75.35219 | 1324 ft | 134 kts | 314° |
| 2026-05-04 05:07 | 43.20264 | -75.36295 | 1103 ft | 129 kts | 314° |
| 2026-05-04 05:07 | 43.20994 | -75.37326 | 899 ft | 126 kts | 314° |
| 2026-05-04 05:07 | 43.21706 | -75.38330 | 693 ft | 124 kts | 314° |
| 2026-05-04 05:09 | 43.23768 | -75.41658 | 491 ft | 28 kts | 168° |
| 2026-05-04 05:09 | 43.23586 | -75.41419 | 489 ft | 45 kts | 134° |
| 2026-05-04 05:10 | 43.23337 | -75.41064 | 484 ft | 44 kts | 135° |
| 2026-05-04 05:10 | 43.23087 | -75.40713 | 481 ft | 40 kts | 133° |
| 2026-05-04 05:10 | 43.22983 | -75.40735 | 480 ft | 30 kts | 271° |
| 2026-05-04 05:10 | 43.22982 | -75.41129 | 480 ft | 35 kts | 270° |
| 2026-05-04 05:11 | 43.22933 | -75.41389 | 481 ft | 21 kts | 180° |
| 2026-05-04 05:11 | 43.22694 | -75.41372 | 478 ft | 29 kts | 150° |
| 2026-05-04 05:11 | 43.22689 | -75.41244 | 478 ft | 11 kts | 146° |
| 2026-05-04 05:11 | 43.22669 | -75.41276 | 477 ft | 0 kts | 288° |